Time;durP1;ratioP1;P1;durP2;ratioP2;P2;SDS_P1;SDS_P2;PMS_P1;PMS_P2;Temp;Humidity;BMP_temperature;BMP_pressure;BME280_temperature;BME280_humidity;BME280_pressure;Samples;Min_cycle;Max_cycle;Signal;HPM_P1;HPM_P2
2023/05/10 00:00:25;;;;;;;13.13;11.38;;;;;;;12.40;100.00;100766.78;5006936;28;20030;-61
2023/05/10 00:02:50;;;;;;;13.20;11.80;;;;;;;12.40;100.00;100764.03;4996028;28;20079;-62
2023/05/10 00:05:15;;;;;;;15.15;12.98;;;;;;;12.38;100.00;100763.44;5008869;28;20029;-61
2023/05/10 00:07:44;;;;;;;14.85;13.25;;;;;;;12.39;100.00;100767.88;5005120;28;20522;-62
2023/05/10 00:10:10;;;;;;;14.88;13.25;;;;;;;12.36;100.00;100762.84;5005553;28;20025;-61
2023/05/10 00:12:35;;;;;;;15.93;14.25;;;;;;;12.34;100.00;100759.50;5007223;28;20037;-61
2023/05/10 00:15:00;;;;;;;16.38;14.70;;;;;;;12.33;100.00;100757.84;5008078;28;20480;-61
2023/05/10 00:17:26;;;;;;;17.65;14.93;;;;;;;12.35;100.00;100763.91;4990973;28;20031;-61
2023/05/10 00:19:51;;;;;;;16.90;15.10;;;;;;;12.33;100.00;100760.59;5001323;28;20034;-61
2023/05/10 00:22:16;;;;;;;17.95;16.05;;;;;;;12.33;100.00;100763.34;5003560;28;20034;-61
2023/05/10 00:24:41;;;;;;;19.77;16.48;;;;;;;12.33;100.00;100755.06;4988211;28;20044;-61
2023/05/10 00:27:07;;;;;;;18.50;16.50;;;;;;;12.30;100.00;100755.56;5001481;28;20573;-61
2023/05/10 00:29:33;;;;;;;17.92;15.88;;;;;;;12.28;100.00;100754.97;5006332;28;20075;-61
2023/05/10 00:31:58;;;;;;;17.10;15.27;;;;;;;12.26;100.00;100761.78;5002870;28;20022;-62
2023/05/10 00:34:24;;;;;;;19.92;17.63;;;;;;;12.25;100.00;100766.47;5005564;28;20049;-61
2023/05/10 00:36:49;;;;;;;18.20;16.25;;;;;;;12.24;100.00;100759.28;5000626;28;20081;-61
2023/05/10 00:39:15;;;;;;;18.75;16.80;;;;;;;12.25;100.00;100754.63;4999367;28;20073;-61
2023/05/10 00:41:40;;;;;;;17.80;16.00;;;;;;;12.19;100.00;100760.00;4996577;28;20038;-62
2023/05/10 00:44:05;;;;;;;22.17;17.70;;;;;;;12.21;100.00;100765.28;4994072;28;20461;-62
2023/05/10 00:46:31;;;;;;;19.20;17.23;;;;;;;12.16;100.00;100771.50;4987616;28;20038;-62
2023/05/10 00:48:57;;;;;;;19.95;17.70;;;;;;;12.16;100.00;100767.91;5001176;28;20058;-61
2023/05/10 00:51:22;;;;;;;19.88;17.50;;;;;;;12.14;100.00;100759.06;5005999;28;20033;-61
2023/05/10 00:53:48;;;;;;;19.25;17.17;;;;;;;12.13;100.00;100757.41;5007179;28;20026;-62
2023/05/10 00:56:13;;;;;;;20.60;18.08;;;;;;;12.14;100.00;100759.06;5006915;28;20083;-61
2023/05/10 00:58:42;;;;;;;21.02;17.67;;;;;;;12.11;100.00;100763.13;5007255;28;20041;-61
2023/05/10 01:01:09;;;;;;;20.13;18.00;;;;;;;12.08;100.00;100760.88;4994370;28;20038;-61
2023/05/10 01:03:35;;;;;;;20.30;17.48;;;;;;;12.05;100.00;100758.59;4987459;28;20852;-61
2023/05/10 01:06:01;;;;;;;20.98;18.73;;;;;;;12.02;100.00;100756.34;5005338;28;20032;-61
2023/05/10 01:08:26;;;;;;;21.88;19.67;;;;;;;12.02;100.00;100756.34;5007535;28;20022;-62
2023/05/10 01:10:52;;;;;;;21.90;19.35;;;;;;;12.00;100.00;100761.25;5006782;28;20033;-61
2023/05/10 01:13:31;;;;;;;22.10;19.85;;;;;;;12.00;100.00;100763.19;5005728;28;20026;-62
2023/05/10 01:15:57;;;;;;;22.42;20.10;;;;;;;11.91;100.00;100755.31;4990404;28;20463;-62
2023/05/10 01:18:23;;;;;;;22.05;19.75;;;;;;;11.91;100.00;100758.06;4997475;28;20040;-61
2023/05/10 01:21:00;;;;;;;22.92;20.52;;;;;;;11.91;100.00;100760.81;4998108;28;20034;-62
2023/05/10 01:23:48;;;;;;;23.33;20.67;;;;;;;11.90;100.00;100758.28;4993114;28;20102;-62
2023/05/10 01:26:50;;;;;;;22.35;20.08;;;;;;;11.90;100.00;100759.13;5000972;28;20528;-61
2023/05/10 01:29:29;;;;;;;24.02;21.45;;;;;;;11.92;100.00;100758.91;4986120;28;20403;-61
2023/05/10 01:32:30;;;;;;;22.77;20.38;;;;;;;11.94;100.00;100754.81;4977559;28;20133;-62
2023/05/10 01:35:17;;;;;;;21.88;19.67;;;;;;;11.95;100.00;100761.13;4980521;28;20042;-62
2023/05/10 01:37:50;;;;;;;24.58;21.63;;;;;;;11.94;100.00;100754.81;4987829;28;20034;-61
2023/05/10 01:40:23;;;;;;;24.35;21.13;;;;;;;11.96;100.00;100751.81;4968533;28;20081;-61
2023/05/10 01:42:58;;;;;;;23.45;20.60;;;;;;;11.98;100.00;100760.66;4984137;28;20038;-62
2023/05/10 01:45:47;;;;;;;24.60;21.08;;;;;;;12.05;100.00;100766.03;4994240;28;20030;-61
2023/05/10 01:48:14;;;;;;;24.63;21.95;;;;;;;12.02;100.00;100761.03;5005231;28;20050;-61
2023/05/10 01:50:43;;;;;;;25.25;22.58;;;;;;;12.06;100.00;100762.19;5005937;28;20030;-62
2023/05/10 01:53:11;;;;;;;29.48;25.25;;;;;;;12.08;100.00;100773.81;5003184;28;20030;-61
2023/05/10 01:55:45;;;;;;;30.55;26.08;;;;;;;12.10;100.00;100772.47;4983798;28;20035;-62
2023/05/10 01:58:14;;;;;;;31.33;25.52;;;;;;;12.10;100.00;100764.22;4967852;28;20043;-62
2023/05/10 02:00:44;;;;;;;32.22;26.23;;;;;;;12.10;100.00;100763.38;4986301;28;20031;-61
2023/05/10 02:03:11;;;;;;;33.05;26.85;;;;;;;12.10;100.00;100766.97;5005147;28;20022;-61
2023/05/10 02:05:37;;;;;;;33.00;27.00;;;;;;;12.10;100.00;100768.91;5007166;28;20456;-62
2023/05/10 02:08:06;;;;;;;34.70;28.13;;;;;;;12.11;100.00;100768.66;5006328;28;20064;-62
2023/05/10 02:10:34;;;;;;;33.67;27.00;;;;;;;12.13;100.00;100773.94;5006459;28;20068;-62
2023/05/10 02:13:00;;;;;;;33.63;28.13;;;;;;;12.14;100.00;100764.59;4997312;28;20030;-62
2023/05/10 02:15:26;;;;;;;32.40;26.80;;;;;;;12.16;100.00;100774.25;4987083;28;20281;-61
2023/05/10 02:17:54;;;;;;;34.45;27.70;;;;;;;12.20;100.00;100778.19;5003576;28;20378;-61
2023/05/10 02:20:20;;;;;;;36.13;27.33;;;;;;;12.22;100.00;100777.97;5006262;28;20440;-62
2023/05/10 02:22:48;;;;;;;36.53;29.70;;;;;;;12.24;100.00;100784.06;5003679;28;20113;-62
2023/05/10 02:25:14;;;;;;;;;;;;;;;12.31;100.00;100781.16;4999482;28;20065;-62
2023/05/10 02:27:42;;;;;;;36.58;29.20;;;;;;;12.27;100.00;100780.84;5005238;28;19995;-62
2023/05/10 02:30:08;;;;;;;39.67;32.38;;;;;;;12.27;100.00;100789.09;4989166;28;20049;-62
2023/05/10 02:32:35;;;;;;;39.97;32.58;;;;;;;12.25;100.00;100782.97;5006663;28;20481;-62
2023/05/10 02:35:02;;;;;;;39.72;31.92;;;;;;;12.25;100.00;100776.66;5009430;28;20053;-62
2023/05/10 02:37:28;;;;;;;41.28;33.25;;;;;;;12.26;100.00;100781.06;5009193;28;20160;-61
2023/05/10 02:39:55;;;;;;;40.38;31.92;;;;;;;12.27;100.00;100777.25;5007013;28;20461;-63
2023/05/10 02:42:27;;;;;;;40.75;32.80;;;;;;;12.28;100.00;100778.94;4989726;28;20065;-61
2023/05/10 02:44:57;;;;;;;37.17;32.20;;;;;;;12.29;100.00;100772.31;5000759;28;20033;-61
2023/05/10 02:47:22;;;;;;;39.72;32.13;;;;;;;12.30;100.00;100776.75;4994708;28;20101;-61
2023/05/10 02:49:48;;;;;;;38.75;32.47;;;;;;;12.27;100.00;100775.34;4990662;28;20421;-63
2023/05/10 02:52:19;;;;;;;36.40;31.65;;;;;;;12.26;100.00;100778.31;4989226;28;20066;-62
2023/05/10 02:54:47;;;;;;;34.83;31.00;;;;;;;12.26;100.00;100781.06;4992716;28;20048;-62
2023/05/10 02:57:26;;;;;;;38.50;31.70;;;;;;;12.28;100.00;100782.50;4996719;28;20022;-61
2023/05/10 02:59:51;;;;;;;38.90;31.98;;;;;;;12.26;100.00;100781.91;4988679;28;20038;-62
2023/05/10 03:02:16;;;;;;;36.58;31.55;;;;;;;12.28;100.00;100782.50;4986345;28;20118;-62
2023/05/10 03:04:41;;;;;;;36.78;31.75;;;;;;;12.29;100.00;100786.09;5004706;28;20022;-62
2023/05/10 03:07:07;;;;;;;40.63;34.50;;;;;;;12.29;100.00;100786.94;5005860;28;20724;-61
2023/05/10 03:09:33;;;;;;;38.65;34.05;;;;;;;12.31;100.00;100792.19;4991443;28;20034;-62
2023/05/10 03:12:23;;;;;;;43.28;36.58;;;;;;;12.33;100.00;100785.38;4989401;28;20049;-61
2023/05/10 03:15:00;;;;;;;42.58;37.80;;;;;;;12.32;100.00;100789.22;5006238;28;20030;-62
2023/05/10 03:17:32;;;;;;;44.88;37.47;;;;;;;12.32;100.00;100783.69;4990599;28;20113;-61
2023/05/10 03:20:04;;;;;;;45.17;38.63;;;;;;;12.30;100.00;100785.00;4989690;28;20109;-61
2023/05/10 03:22:36;;;;;;;46.55;39.33;;;;;;;12.30;100.00;100785.00;4988975;28;20030;-61
2023/05/10 03:25:05;;;;;;;45.15;39.47;;;;;;;12.35;100.00;100788.72;4989052;28;20018;-62
2023/05/10 03:27:32;;;;;;;45.30;39.22;;;;;;;12.31;100.00;100793.03;4999268;28;20033;-62
2023/05/10 03:29:57;;;;;;;45.95;39.30;;;;;;;12.31;100.00;100789.44;5008381;28;20057;-62
2023/05/10 03:32:23;;;;;;;42.85;38.10;;;;;;;12.31;100.00;100790.25;5008195;28;20588;-62
2023/05/10 03:34:48;;;;;;;46.53;40.13;;;;;;;12.31;100.00;100797.69;5009006;28;20049;-62
2023/05/10 03:37:13;;;;;;;43.92;39.08;;;;;;;12.33;100.00;100793.63;5008339;28;20061;-62
2023/05/10 03:39:39;;;;;;;42.60;37.90;;;;;;;12.31;100.00;100801.28;5009214;28;20068;-61
2023/05/10 03:42:04;;;;;;;45.45;37.63;;;;;;;12.31;100.00;100798.53;5008635;28;20053;-61
2023/05/10 03:44:30;;;;;;;43.92;39.00;;;;;;;12.33;100.00;100798.31;5008141;28;20644;-61
2023/05/10 03:46:56;;;;;;;46.08;38.90;;;;;;;12.33;100.00;100809.31;5007944;28;20022;-61
2023/05/10 03:49:22;;;;;;;45.65;38.72;;;;;;;12.32;100.00;100811.25;5008051;28;20060;-61
2023/05/10 03:51:47;;;;;;;41.90;36.88;;;;;;;12.31;100.00;100806.78;5008474;28;20054;-62
2023/05/10 03:54:12;;;;;;;39.53;35.03;;;;;;;12.33;100.00;100809.31;5008393;28;20053;-61
2023/05/10 03:56:38;;;;;;;40.87;35.33;;;;;;;12.31;100.00;100814.22;5008447;28;20102;-61
2023/05/10 03:59:07;;;;;;;33.65;29.80;;;;;;;12.34;100.00;100805.47;5008387;28;20280;-62
2023/05/10 04:01:32;;;;;;;36.60;31.90;;;;;;;12.29;100.00;100808.97;5008037;28;20057;-61
2023/05/10 04:03:57;;;;;;;33.08;29.55;;;;;;;12.29;100.00;100811.72;5007797;28;20022;-61
2023/05/10 04:06:23;;;;;;;31.40;28.02;;;;;;;12.27;100.00;100815.81;5008098;28;20065;-61
2023/05/10 04:08:48;;;;;;;33.50;27.90;;;;;;;12.28;100.00;100814.72;5008543;28;20044;-62
2023/05/10 04:11:14;;;;;;;34.25;28.45;;;;;;;12.26;100.00;100823.19;5008201;28;20104;-61
2023/05/10 04:13:39;;;;;;;30.05;25.67;;;;;;;12.25;100.00;100821.53;5008445;28;20068;-61
2023/05/10 04:16:05;;;;;;;29.33;25.20;;;;;;;12.26;100.00;100828.72;5002255;28;20106;-61
2023/05/10 04:18:31;;;;;;;30.85;25.75;;;;;;;12.23;100.00;100820.94;4987781;28;20695;-61
2023/05/10 04:20:56;;;;;;;27.73;24.73;;;;;;;12.23;100.00;100820.13;4987847;28;20026;-61
2023/05/10 04:23:21;;;;;;;29.77;25.60;;;;;;;12.24;100.00;100819.88;4988690;28;20395;-61
2023/05/10 04:25:47;;;;;;;27.83;24.30;;;;;;;12.22;100.00;100822.03;4986700;28;20030;-61
2023/05/10 04:28:12;;;;;;;30.13;25.67;;;;;;;12.22;100.00;100821.22;4988517;28;20106;-61
2023/05/10 04:30:38;;;;;;;29.73;25.35;;;;;;;12.20;100.00;100824.19;4988171;28;20045;-61
2023/05/10 04:33:04;;;;;;;31.05;25.52;;;;;;;12.23;100.00;100826.47;4987270;28;20030;-61
2023/05/10 04:35:29;;;;;;;30.60;26.10;;;;;;;12.20;100.00;100825.00;4988055;28;20046;-61
2023/05/10 04:37:54;;;;;;;33.88;27.30;;;;;;;12.18;100.00;100823.59;4987464;28;20022;-61
2023/05/10 04:40:20;;;;;;;33.08;27.60;;;;;;;12.15;100.00;100835.91;4988397;28;20054;-62
2023/05/10 04:42:45;;;;;;;31.52;25.02;;;;;;;12.14;100.00;100833.41;4988234;28;20377;-61
2023/05/10 04:45:11;;;;;;;29.77;25.00;;;;;;;12.12;100.00;100830.91;4987370;28;20085;-61
2023/05/10 04:47:36;;;;;;;29.77;24.23;;;;;;;12.06;100.00;100834.59;4987174;28;20038;-61
2023/05/10 04:50:03;;;;;;;28.23;24.92;;;;;;;12.04;100.00;100839.53;4987683;28;20076;-62
2023/05/10 04:52:28;;;;;;;26.40;23.67;;;;;;;11.97;100.00;100838.81;4987097;28;20665;-61
2023/05/10 04:54:54;;;;;;;26.73;23.80;;;;;;;11.94;100.00;100853.06;4986840;28;20045;-61
2023/05/10 04:57:19;;;;;;;28.30;23.55;;;;;;;11.92;100.00;100841.47;4987105;28;20018;-62
2023/05/10 04:59:44;;;;;;;23.95;21.35;;;;;;;11.92;100.00;100853.31;5002775;28;20030;-61
2023/05/10 05:02:10;;;;;;;27.45;22.73;;;;;;;11.91;100.00;100848.88;4986472;28;20120;-61
2023/05/10 05:04:35;;;;;;;23.75;21.25;;;;;;;11.92;100.00;100845.03;4987985;28;20445;-61
2023/05/10 05:07:00;;;;;;;23.73;21.23;;;;;;;11.90;100.00;100847.19;4986994;28;20110;-61
2023/05/10 05:09:25;;;;;;;24.42;21.83;;;;;;;11.93;100.00;100859.66;5002606;28;20054;-61
2023/05/10 05:11:51;;;;;;;23.60;21.02;;;;;;;11.95;100.00;100855.56;4987411;28;20034;-61
2023/05/10 05:14:16;;;;;;;23.83;21.33;;;;;;;11.97;100.00;100858.09;4987716;28;20026;-61
2023/05/10 05:16:41;;;;;;;26.45;20.98;;;;;;;12.02;100.00;100860.13;4987352;28;20117;-62
2023/05/10 05:19:07;;;;;;;23.60;21.10;;;;;;;12.00;100.00;100856.75;4986968;28;20169;-61
2023/05/10 05:21:32;;;;;;;24.17;21.58;;;;;;;12.02;100.00;100865.63;4987111;28;20397;-61
2023/05/10 05:23:57;;;;;;;22.45;20.13;;;;;;;12.04;100.00;100860.72;4986874;28;20026;-61
2023/05/10 05:26:22;;;;;;;24.15;21.65;;;;;;;12.05;100.00;100854.13;4987477;28;20037;-61
2023/05/10 05:28:49;;;;;;;23.13;20.73;;;;;;;12.13;100.00;100864.78;4987350;28;20033;-62
2023/05/10 05:31:15;;;;;;;24.08;21.55;;;;;;;12.16;100.00;100862.38;4987045;28;20033;-61
2023/05/10 05:33:40;;;;;;;24.20;21.75;;;;;;;12.19;100.00;100861.91;4986991;28;20034;-61
2023/05/10 05:36:06;;;;;;;23.15;20.77;;;;;;;12.21;100.00;100864.41;4986821;28;20061;-62
2023/05/10 05:38:31;;;;;;;23.63;21.33;;;;;;;12.28;100.00;100864.28;4984558;28;20023;-62
2023/05/10 05:40:57;;;;;;;24.88;22.38;;;;;;;12.31;100.00;100864.63;4986483;28;20617;-61
2023/05/10 05:43:23;;;;;;;23.10;20.65;;;;;;;12.37;100.00;100871.09;4987390;28;20587;-61
2023/05/10 05:45:48;;;;;;;23.35;20.95;;;;;;;12.40;100.00;100870.59;4987361;28;20031;-63
2023/05/10 05:48:14;;;;;;;24.63;22.27;;;;;;;12.45;100.00;100867.97;4986451;28;20030;-62
2023/05/10 05:50:39;;;;;;;23.17;20.88;;;;;;;12.46;100.00;100869.63;4987358;28;20042;-61
2023/05/10 05:53:04;;;;;;;23.52;21.13;;;;;;;12.46;100.00;100867.72;4986394;28;20117;-62
2023/05/10 05:55:31;;;;;;;23.48;21.08;;;;;;;12.44;100.00;100875.38;4987038;28;20030;-61
2023/05/10 05:57:57;;;;;;;23.40;21.10;;;;;;;12.43;100.00;100872.88;4987084;28;20374;-62
2023/05/10 06:00:22;;;;;;;23.65;21.15;;;;;;;12.51;100.00;100878.00;4987063;28;20120;-62
2023/05/10 06:02:47;;;;;;;24.50;21.95;;;;;;;12.54;100.00;100871.19;4986602;28;20026;-62
2023/05/10 06:05:13;;;;;;;24.08;21.40;;;;;;;12.62;100.00;100882.66;4986902;28;20050;-61
2023/05/10 06:07:41;;;;;;;23.27;20.77;;;;;;;12.66;100.00;100880.25;4988814;28;20030;-62
2023/05/10 06:10:07;;;;;;;24.38;21.98;;;;;;;12.79;100.00;100877.22;4991116;28;20062;-61
2023/05/10 06:12:33;;;;;;;23.98;21.50;;;;;;;12.86;100.00;100869.63;4990711;28;20116;-61
2023/05/10 06:14:58;;;;;;;23.52;21.13;;;;;;;12.90;100.00;100879.09;4990667;28;20077;-61
2023/05/10 06:17:24;;;;;;;23.00;20.70;;;;;;;12.86;100.00;100888.94;4989721;28;20030;-61
2023/05/10 06:19:49;;;;;;;22.88;20.48;;;;;;;12.83;100.00;100894.13;4990388;28;20026;-62
2023/05/10 06:22:15;;;;;;;22.60;20.45;;;;;;;12.75;100.00;100891.72;4990360;28;20433;-62
2023/05/10 06:24:40;;;;;;;22.88;20.67;;;;;;;12.72;100.00;100906.81;4990728;28;20377;-62
2023/05/10 06:27:06;;;;;;;22.90;20.60;;;;;;;12.65;100.00;100898.69;4990346;28;20051;-61
2023/05/10 06:29:31;;;;;;;23.40;21.15;;;;;;;12.66;100.00;100896.78;4990718;28;20040;-61
2023/05/10 06:31:56;;;;;;;22.70;20.38;;;;;;;12.66;100.00;100899.53;4989413;28;20512;-62
2023/05/10 06:34:21;;;;;;;22.38;20.15;;;;;;;12.69;100.00;100905.41;4990306;28;20046;-61
2023/05/10 06:36:47;;;;;;;22.88;20.60;;;;;;;12.71;100.00;100902.41;4990021;28;20100;-61
2023/05/10 06:39:12;;;;;;;23.92;21.42;;;;;;;12.73;100.00;100906.59;4990348;28;20061;-61
2023/05/10 06:41:37;;;;;;;23.88;21.42;;;;;;;12.76;100.00;100908.00;4991291;28;20030;-61
2023/05/10 06:44:03;;;;;;;23.67;21.20;;;;;;;12.82;100.00;100908.97;5009006;28;20062;-62
2023/05/10 06:46:29;;;;;;;24.40;22.00;;;;;;;12.85;100.00;100911.22;5009737;28;20026;-62
2023/05/10 06:48:54;;;;;;;23.92;21.63;;;;;;;12.92;100.00;100914.69;5009030;28;20034;-62
2023/05/10 06:51:21;;;;;;;24.45;22.05;;;;;;;12.99;100.00;100915.38;4989526;28;20034;-62
2023/05/10 06:53:46;;;;;;;24.48;22.00;;;;;;;13.09;100.00;100914.75;4990282;28;20116;-62
2023/05/10 06:56:11;;;;;;;24.52;20.95;;;;;;;13.17;100.00;100914.34;4989542;28;20514;-62
2023/05/10 06:58:36;;;;;;;23.40;21.00;;;;;;;13.24;100.00;100921.44;4990020;28;20184;-62
2023/05/10 07:01:03;;;;;;;24.90;22.20;;;;;;;13.29;100.00;100919.88;4989278;28;20113;-62
2023/05/10 07:03:28;;;;;;;23.75;21.20;;;;;;;13.31;100.00;100918.53;4989785;28;20168;-62
2023/05/10 07:05:54;;;;;;;24.10;21.52;;;;;;;13.30;100.00;100922.38;4988246;28;20121;-62
2023/05/10 07:08:20;;;;;;;23.40;21.00;;;;;;;13.25;100.00;100925.03;4988275;28;20676;-62
2023/05/10 07:10:45;;;;;;;23.77;21.48;;;;;;;13.17;100.00;100922.63;4990003;28;20031;-62
2023/05/10 07:13:10;;;;;;;24.85;22.35;;;;;;;13.10;100.00;100944.84;4989674;28;20708;-61
2023/05/10 07:15:36;;;;;;;24.85;22.42;;;;;;;13.01;100.00;100939.94;4989924;28;20038;-62
2023/05/10 07:18:01;;;;;;;24.70;22.17;;;;;;;12.92;100.00;100945.84;4988293;28;20038;-62
2023/05/10 07:20:26;;;;;;;26.52;23.77;;;;;;;12.87;100.00;100951.25;4987297;28;20392;-62
2023/05/10 07:22:51;;;;;;;26.30;23.73;;;;;;;12.83;100.00;100947.31;4986031;28;20054;-62
2023/05/10 07:25:17;;;;;;;25.95;23.27;;;;;;;12.79;100.00;100948.88;4986787;28;20053;-62
2023/05/10 07:27:42;;;;;;;27.77;24.95;;;;;;;12.76;100.00;100954.03;4988298;28;20105;-62
2023/05/10 07:30:08;;;;;;;26.42;23.63;;;;;;;12.73;100.00;100955.38;4984779;28;20038;-62
2023/05/10 07:32:33;;;;;;;26.58;23.88;;;;;;;12.68;100.00;100963.53;4985882;28;20037;-62
2023/05/10 07:34:58;;;;;;;26.20;23.67;;;;;;;12.64;100.00;100963.16;4985866;28;20053;-62
2023/05/10 07:37:24;;;;;;;27.35;24.65;;;;;;;12.63;100.00;100963.41;4985114;28;20062;-62
2023/05/10 07:39:49;;;;;;;27.10;24.42;;;;;;;12.63;100.00;100955.16;4986307;28;20034;-62
2023/05/10 07:42:15;;;;;;;26.98;24.40;;;;;;;12.60;100.00;100961.13;4987884;28;20488;-62
2023/05/10 07:44:40;;;;;;;26.50;23.80;;;;;;;12.62;100.00;100965.34;4984511;28;20114;-62
2023/05/10 07:47:05;;;;;;;25.58;22.95;;;;;;;12.64;100.00;100974.19;4984576;28;20281;-62
2023/05/10 07:49:30;;;;;;;24.05;21.65;;;;;;;12.73;100.00;100966.41;4985483;28;20033;-61
2023/05/10 07:51:56;;;;;;;24.58;22.17;;;;;;;12.73;100.00;100972.75;4983169;28;20700;-62
2023/05/10 07:54:21;;;;;;;24.20;21.80;;;;;;;12.78;100.00;100974.78;4985764;28;20038;-62
2023/05/10 07:56:47;;;;;;;23.98;21.58;;;;;;;12.86;100.00;100965.28;4988350;28;20093;-61
2023/05/10 07:59:16;;;;;;;23.55;21.05;;;;;;;12.92;100.00;100973.41;4985158;28;20592;-62
2023/05/10 08:01:42;;;;;;;23.40;21.10;;;;;;;12.96;100.00;100973.75;4984181;28;20088;-62
2023/05/10 08:04:08;;;;;;;23.15;20.85;;;;;;;12.99;100.00;100976.03;4985557;28;20125;-61
2023/05/10 08:06:34;;;;;;;20.77;18.58;;;;;;;13.01;100.00;100986.81;4985732;28;20473;-62
2023/05/10 08:08:59;;;;;;;19.45;17.50;;;;;;;12.94;100.00;100979.53;4987343;28;20041;-61
2023/05/10 08:11:25;;;;;;;19.83;17.73;;;;;;;12.95;100.00;100991.41;4985819;28;20497;-61
2023/05/10 08:13:51;;;;;;;18.45;16.65;;;;;;;12.91;100.00;100995.72;4986796;28;20038;-62
2023/05/10 08:16:17;;;;;;;19.20;17.30;;;;;;;12.88;100.00;100998.97;4987919;28;20422;-62
2023/05/10 08:18:44;;;;;;;16.77;15.15;;;;;;;12.89;100.00;100998.72;4985552;28;20069;-61
2023/05/10 08:21:11;;;;;;;18.77;16.85;;;;;;;12.99;100.00;101001.69;4985579;28;20038;-62
2023/05/10 08:23:36;;;;;;;16.70;15.07;;;;;;;13.02;100.00;101002.28;4987022;28;20065;-62
2023/05/10 08:26:01;;;;;;;18.58;16.80;;;;;;;13.15;100.00;101004.78;4984954;28;20035;-62
2023/05/10 08:28:27;;;;;;;17.15;15.02;;;;;;;13.26;100.00;101005.84;4978261;28;20362;-62
2023/05/10 08:30:52;;;;;;;16.23;14.65;;;;;;;13.28;100.00;101010.06;4986603;28;20173;-62
2023/05/10 08:33:18;;;;;;;16.70;15.00;;;;;;;13.33;100.00;101010.16;4985431;28;20041;-62
2023/05/10 08:35:43;;;;;;;16.35;14.57;;;;;;;13.49;100.00;101012.13;4986609;28;20037;-62
2023/05/10 08:38:09;;;;;;;15.68;14.18;;;;;;;13.67;100.00;101010.25;4986640;28;20034;-62
2023/05/10 08:40:36;;;;;;;14.10;12.68;;;;;;;13.77;100.00;101010.44;4986479;28;20026;-62
2023/05/10 08:43:06;;;;;;;;;;;;;;;13.98;100.00;101008.88;4983338;28;20052;-62
2023/05/10 08:45:35;;;;;;;13.57;12.27;;;;;;;14.16;100.00;101013.34;4980288;28;20380;-62
2023/05/10 08:48:01;;;;;;;;;;;;;;;14.33;100.00;101021.63;4982705;28;20027;-62
2023/05/10 08:50:27;;;;;;;13.23;11.93;;;;;;;14.19;100.00;101023.88;4987005;28;19917;-62
2023/05/10 08:52:57;;;;;;;13.73;12.43;;;;;;;14.16;100.00;101027.16;4986260;28;20416;-62
2023/05/10 08:55:24;;;;;;;12.35;11.15;;;;;;;14.15;100.00;101028.25;4976450;28;20638;-62
2023/05/10 08:57:49;;;;;;;13.50;12.15;;;;;;;14.17;100.00;101026.88;4986087;28;20034;-62
2023/05/10 09:00:16;;;;;;;11.80;10.65;;;;;;;14.09;100.00;101023.69;4986351;28;20037;-62
2023/05/10 09:02:42;;;;;;;11.80;10.43;;;;;;;14.00;100.00;101032.41;4984895;28;20031;-62
2023/05/10 09:05:09;;;;;;;11.85;10.65;;;;;;;13.98;100.00;101025.44;4985790;28;20038;-62
2023/05/10 09:07:35;;;;;;;12.57;11.02;;;;;;;13.93;100.00;101031.72;4985189;28;20026;-62
2023/05/10 09:10:00;;;;;;;12.13;10.73;;;;;;;13.89;100.00;101036.06;4976202;28;20122;-62
2023/05/10 09:12:27;;;;;;;12.18;10.38;;;;;;;13.85;100.00;101032.13;4985859;28;20070;-62
2023/05/10 09:14:54;;;;;;;11.82;9.77;;;;;;;13.75;100.00;101040.22;4985845;28;20093;-63
2023/05/10 09:17:20;;;;;;;10.45;9.15;;;;;;;13.74;100.00;101044.06;4975409;28;20030;-63
2023/05/10 09:19:45;;;;;;;10.57;8.95;;;;;;;13.76;100.00;101045.47;4984635;28;20061;-62
2023/05/10 09:22:10;;;;;;;11.45;10.30;;;;;;;13.77;100.00;101043.56;4985875;28;20426;-62
2023/05/10 09:24:42;;;;;;;11.10;10.10;;;;;;;13.81;100.00;101047.50;4985511;28;20031;-62
2023/05/10 09:27:07;;;;;;;10.95;9.95;;;;;;;13.78;100.00;101048.00;4977038;28;20137;-62
2023/05/10 09:29:41;;;;;;;11.20;10.10;;;;;;;13.79;100.00;101057.97;4987120;28;20125;-62
2023/05/10 09:32:07;;;;;;;10.50;9.40;;;;;;;13.77;100.00;101049.09;4975753;28;20046;-62
2023/05/10 09:34:34;;;;;;;10.73;9.63;;;;;;;13.71;100.00;101055.59;4986199;28;20077;-62
2023/05/10 09:37:02;;;;;;;10.73;9.23;;;;;;;13.70;100.00;101053.91;5000417;28;20122;-62
2023/05/10 09:39:36;;;;;;;11.52;9.45;;;;;;;13.67;100.00;101060.75;4984972;28;20093;-62
2023/05/10 09:42:05;;;;;;;9.43;8.50;;;;;;;13.67;100.00;101060.75;4986001;28;20034;-62
2023/05/10 09:44:31;;;;;;;10.65;9.35;;;;;;;13.64;100.00;101061.28;4988912;28;20030;-62
2023/05/10 09:46:56;;;;;;;9.98;9.00;;;;;;;13.64;100.00;101058.50;4988449;28;20037;-62
2023/05/10 09:49:22;;;;;;;9.60;8.70;;;;;;;13.68;100.00;101067.94;4990693;28;20026;-62
2023/05/10 09:52:00;;;;;;;9.70;8.70;;;;;;;13.77;100.00;101069.25;4988185;28;20045;-63
2023/05/10 09:54:25;;;;;;;11.00;8.93;;;;;;;13.80;100.00;101069.84;4988119;28;20022;-62
2023/05/10 09:56:50;;;;;;;10.02;8.70;;;;;;;13.84;100.00;101066.34;4990301;28;20080;-62
2023/05/10 09:59:16;;;;;;;9.97;8.97;;;;;;;13.90;100.00;101065.34;4988416;28;20462;-63
2023/05/10 10:01:48;;;;;;;9.48;7.95;;;;;;;13.98;100.00;101069.63;4988267;28;20432;-63
2023/05/10 10:04:14;;;;;;;8.85;8.02;;;;;;;14.04;100.00;101054.84;4990285;28;20137;-62
2023/05/10 10:06:40;;;;;;;10.85;8.35;;;;;;;14.15;100.00;101058.63;4990106;28;20459;-62
2023/05/10 10:09:06;;;;;;;9.23;7.63;;;;;;;14.35;100.00;101064.50;4991166;28;20022;-61
2023/05/10 10:11:34;;;;;;;8.13;7.10;;;;;;;14.47;100.00;101064.41;4990905;28;20393;-62
2023/05/10 10:13:59;;;;;;;8.30;6.90;;;;;;;14.73;100.00;101069.28;4990454;28;20410;-62
2023/05/10 10:16:26;;;;;;;7.80;6.70;;;;;;;14.93;100.00;101063.22;4990219;28;20068;-62
2023/05/10 10:18:51;;;;;;;9.18;7.00;;;;;;;15.23;100.00;101068.34;4991167;28;20100;-62
2023/05/10 10:21:17;;;;;;;9.13;6.78;;;;;;;15.61;100.00;101077.66;4989522;28;20062;-62
2023/05/10 10:23:43;;;;;;;7.70;6.78;;;;;;;15.75;100.00;101072.59;4989524;28;20477;-63
2023/05/10 10:26:10;;;;;;;7.93;6.15;;;;;;;15.70;100.00;101076.16;4990604;28;20037;-62
2023/05/10 10:28:49;;;;;;;8.40;6.63;;;;;;;15.62;100.00;101071.06;4991045;28;20026;-63
2023/05/10 10:31:38;;;;;;;8.65;6.97;;;;;;;15.47;100.00;101076.41;4990197;28;20380;-62
2023/05/10 10:34:09;;;;;;;9.60;7.00;;;;;;;15.24;100.00;101080.25;4989536;28;20050;-62
2023/05/10 10:36:45;;;;;;;8.68;7.25;;;;;;;14.87;100.00;101080.00;4990192;28;20034;-62
2023/05/10 10:39:11;;;;;;;8.38;7.55;;;;;;;14.64;100.00;101079.09;4990084;28;20026;-62
2023/05/10 10:41:43;;;;;;;9.45;8.27;;;;;;;14.49;100.00;101084.38;4990305;28;20022;-62
2023/05/10 10:44:27;;;;;;;10.30;9.02;;;;;;;14.46;100.00;101080.16;4990418;28;20076;-62
2023/05/10 10:47:11;;;;;;;10.93;9.82;;;;;;;14.40;100.00;101077.56;4989143;28;20225;-62
2023/05/10 10:49:39;;;;;;;12.07;10.88;;;;;;;14.32;100.00;101078.81;4990659;28;20050;-62
2023/05/10 10:52:29;;;;;;;12.63;11.27;;;;;;;14.35;100.00;101078.31;4989542;28;20050;-62
2023/05/10 10:55:00;;;;;;;13.05;11.77;;;;;;;14.35;100.00;101081.06;4990285;28;20058;-63
2023/05/10 10:57:26;;;;;;;13.00;11.70;;;;;;;14.49;100.00;101082.44;4989829;28;20378;-62
2023/05/10 11:00:20;;;;;;;12.85;11.55;;;;;;;14.66;100.00;101078.84;4990206;28;20041;-63
2023/05/10 11:03:08;;;;;;;13.23;11.85;;;;;;;14.74;100.00;101076.47;4989509;28;20034;-62
2023/05/10 11:05:38;;;;;;;12.63;11.32;;;;;;;14.82;100.00;101088.22;4990494;28;20085;-62